Time;durP1;ratioP1;P1;durP2;ratioP2;P2;SDS_P1;SDS_P2;PMS_P1;PMS_P2;Temp;Humidity;BMP_temperature;BMP_pressure;BME280_temperature;BME280_humidity;BME280_pressure;Samples;Min_cycle;Max_cycle;Signal;HPM_P1;HPM_P2
2022/05/10 00:00:57;;;;;;;;;34.25;23.50;;;;;21.37;47.17;101797.34;5070788;28;45588;-59
2022/05/10 00:03:35;;;;;;;;;28.50;25.75;;;;;21.35;47.19;101793.97;5072263;28;45311;-59
2022/05/10 00:06:02;;;;;;;;;28.50;23.25;;;;;21.34;46.97;101794.09;5069721;28;45456;-59
2022/05/10 00:08:28;;;;;;;;;32.50;25.75;;;;;21.31;47.28;101792.53;5072780;28;45320;-59
2022/05/10 00:10:56;;;;;;;;;29.25;25.25;;;;;21.30;47.13;101790.81;5071620;28;45296;-59
2022/05/10 00:13:26;;;;;;;;;24.75;24.00;;;;;21.27;47.23;101791.09;5072231;28;45461;-59
2022/05/10 00:15:52;;;;;;;;;28.50;25.75;;;;;21.22;47.52;101787.94;5067298;28;45237;-59
2022/05/10 00:18:21;;;;;;;;;27.50;26.00;;;;;21.18;47.72;101792.72;5071331;28;45302;-59
2022/05/10 00:20:47;;;;;;;;;31.50;26.25;;;;;21.16;47.70;101791.16;5066898;28;45378;-59
2022/05/10 00:23:13;;;;;;;;;24.50;22.50;;;;;21.15;47.97;101786.78;5069206;28;45598;-58
2022/05/10 00:25:39;;;;;;;;;28.00;26.75;;;;;21.14;48.27;101777.88;5066298;28;45483;-59
2022/05/10 00:28:05;;;;;;;;;30.25;27.00;;;;;21.15;48.27;101778.75;5069052;28;45459;-58
2022/05/10 00:30:31;;;;;;;;;33.75;26.75;;;;;21.15;48.39;101786.78;5068221;28;45544;-59
2022/05/10 00:32:57;;;;;;;;;32.25;26.50;;;;;21.15;48.74;101781.41;5071727;28;45759;-59
2022/05/10 00:35:28;;;;;;;;;26.25;25.00;;;;;21.14;48.47;101780.56;5073087;28;45284;-58
2022/05/10 00:37:57;;;;;;;;;29.50;27.00;;;;;21.14;48.77;101769.84;5068567;28;45634;-58
2022/05/10 00:40:29;;;;;;;;;28.00;25.00;;;;;21.13;49.32;101770.00;5069512;28;45558;-58
2022/05/10 00:43:21;;;;;;;;;28.50;25.25;;;;;21.11;49.13;101771.97;5067544;28;45446;-58
2022/05/10 00:46:12;;;;;;;;;31.25;27.00;;;;;21.06;49.01;101768.81;5061101;28;45335;-58
2022/05/10 00:48:49;;;;;;;;;26.50;23.50;;;;;21.04;49.11;101762.75;5069748;28;45254;-58
2022/05/10 00:51:38;;;;;;;;;27.50;24.75;;;;;20.99;49.33;101756.94;5067588;28;45363;-58
2022/05/10 00:54:15;;;;;;;;;26.00;23.75;;;;;20.96;49.42;101754.53;5069373;28;45549;-57
2022/05/10 00:56:58;;;;;;;;;28.50;27.00;;;;;20.92;49.48;101753.94;5069304;28;45475;-59
2022/05/10 00:59:35;;;;;;;;;33.75;24.00;;;;;20.85;49.58;101750.97;5069369;27;45555;-57
2022/05/10 01:02:11;;;;;;;;;27.50;25.50;;;;;20.81;49.62;101757.56;5069293;28;45345;-58
2022/05/10 01:04:49;;;;;;;;;28.00;24.00;;;;;20.77;49.93;101755.28;5066194;28;45520;-58
2022/05/10 01:07:22;;;;;;;;;26.75;25.50;;;;;20.74;50.13;101750.19;5068327;28;45224;-58
2022/05/10 01:09:57;;;;;;;;;28.50;24.75;;;;;20.73;49.73;101759.22;5071133;28;45424;-58
2022/05/10 01:12:39;;;;;;;;;33.50;27.25;;;;;20.72;49.67;101763.72;5068722;28;45239;-57
2022/05/10 01:15:24;;;;;;;;;26.75;21.00;;;;;20.67;50.18;101759.72;5068387;28;45512;-59
2022/05/10 01:17:53;;;;;;;;;30.25;28.00;;;;;20.65;50.05;101742.97;5068936;28;45391;-58
2022/05/10 01:20:27;;;;;;;;;33.25;29.50;;;;;20.63;50.26;101738.59;5073256;28;45485;-58
2022/05/10 01:23:07;;;;;;;;;30.00;25.00;;;;;20.62;50.16;101734.22;5047983;28;45346;-58
2022/05/10 01:25:51;;;;;;;;;31.75;28.00;;;;;20.58;50.65;101738.13;5060821;28;46136;-58
2022/05/10 01:28:28;;;;;;;;;27.25;23.25;;;;;20.56;51.03;101741.91;5061027;28;45429;-58
2022/05/10 01:30:56;;;;;;;;;31.25;27.75;;;;;20.57;50.58;101738.25;5060931;28;45414;-59
2022/05/10 01:33:31;;;;;;;;;26.25;25.50;;;;;20.56;50.89;101740.09;5061054;28;45185;-59
2022/05/10 01:35:56;;;;;;;;;27.75;26.25;;;;;20.54;50.72;101731.34;5060948;28;46178;-58
2022/05/10 01:38:24;;;;;;;;;33.50;27.25;;;;;20.52;50.86;101735.13;5060713;28;45209;-58
2022/05/10 01:40:55;;;;;;;;;30.25;27.75;;;;;20.48;50.44;101721.16;5061035;28;45248;-58
2022/05/10 01:43:38;;;;;;;;;27.50;24.50;;;;;20.46;50.82;101725.81;5061166;28;45280;-58
2022/05/10 01:46:16;;;;;;;;;29.50;28.25;;;;;20.45;50.96;101718.72;5060791;28;45397;-58
2022/05/10 01:48:47;;;;;;;;;27.75;25.75;;;;;20.43;50.97;101720.66;5060538;28;45403;-58
2022/05/10 01:51:29;;;;;;;;;30.00;27.50;;;;;20.43;51.39;101720.66;5060818;28;45384;-58
2022/05/10 01:53:55;;;;;;;;;29.50;27.00;;;;;20.40;51.25;101717.41;5060521;28;45458;-58
2022/05/10 01:56:26;;;;;;;;;27.25;25.75;;;;;20.39;51.37;101715.72;5060631;28;46101;-58
2022/05/10 01:58:53;;;;;;;;;27.75;27.25;;;;;20.40;51.26;101715.59;5060656;28;45225;-58
2022/05/10 02:01:29;;;;;;;;;29.00;26.50;;;;;20.40;51.70;101709.38;5060735;28;45387;-59
2022/05/10 02:04:20;;;;;;;;;28.25;26.00;;;;;20.37;51.45;101713.16;5060957;28;45218;-59
2022/05/10 02:07:10;;;;;;;;;28.00;26.25;;;;;20.37;51.29;101715.81;5067256;28;45510;-59
2022/05/10 02:09:48;;;;;;;;;32.25;26.00;;;;;20.36;52.07;101709.63;5062327;28;45505;-59
2022/05/10 02:12:16;;;;;;;;;27.25;23.75;;;;;20.38;51.39;101714.00;5062834;28;45359;-60
2022/05/10 02:14:58;;;;;;;;;27.25;25.75;;;;;20.38;51.84;101700.63;5064215;28;45153;-59
2022/05/10 02:17:50;;;;;;;;;31.50;22.50;;;;;20.35;51.63;101704.41;5063890;28;45493;-59
2022/05/10 02:20:30;;;;;;;;;32.75;27.25;;;;;20.33;52.10;101701.88;5063933;28;45418;-60
2022/05/10 02:23:14;;;;;;;;;26.25;24.75;;;;;20.28;51.95;101701.41;5063998;28;45372;-58
2022/05/10 02:25:49;;;;;;;;;30.25;26.50;;;;;20.27;51.63;101694.34;5063895;28;45314;-58
2022/05/10 02:28:19;;;;;;;;;27.25;26.25;;;;;20.26;52.16;101699.84;5063975;28;45528;-58
2022/05/10 02:30:45;;;;;;;;;27.50;22.75;;;;;20.26;52.14;101698.03;5063597;28;45189;-58
2022/05/10 02:33:13;;;;;;;;;30.00;24.00;;;;;20.27;52.34;101698.88;5063863;28;45417;-58
2022/05/10 02:35:54;;;;;;;;;25.25;23.25;;;;;20.27;52.08;101691.69;5063854;28;45336;-57
2022/05/10 02:38:23;;;;;;;;;32.00;30.25;;;;;20.26;52.18;101681.97;5063347;28;45406;-59
2022/05/10 02:40:51;;;;;;;;;26.50;25.25;;;;;20.27;52.25;101693.50;5063712;28;45416;-59
2022/05/10 02:43:31;;;;;;;;;21.75;21.75;;;;;20.27;52.27;101693.50;5063838;28;45152;-58
2022/05/10 02:45:57;;;;;;;;;27.25;25.00;;;;;20.26;52.33;101687.31;5063865;28;45258;-58
2022/05/10 02:48:25;;;;;;;;;25.25;22.00;;;;;20.28;52.12;101688.03;5063491;28;45335;-58
2022/05/10 02:50:51;;;;;;;;;26.00;23.00;;;;;20.30;52.02;101687.88;5063619;28;45492;-58
2022/05/10 02:53:16;;;;;;;;;26.00;23.25;;;;;20.32;52.49;101685.94;5063211;28;45338;-58
2022/05/10 02:55:50;;;;;;;;;29.50;28.75;;;;;20.34;52.30;101683.97;5063639;28;45517;-58
2022/05/10 02:58:24;;;;;;;;;28.25;21.75;;;;;20.38;51.80;101684.56;5063461;28;45279;-58
2022/05/10 03:00:56;;;;;;;;;30.00;27.50;;;;;20.40;51.88;101685.28;5063467;28;45330;-59
2022/05/10 03:03:27;;;;;;;;;23.50;21.75;;;;;20.42;51.70;101678.81;5063291;28;45339;-59
2022/05/10 03:05:54;;;;;;;;;25.25;24.25;;;;;20.45;51.48;101672.38;5070312;28;45215;-59
2022/05/10 03:08:21;;;;;;;;;26.00;23.50;;;;;20.46;51.40;101674.94;5063058;28;46068;-59
2022/05/10 03:10:46;;;;;;;;;25.00;21.00;;;;;20.50;51.40;101676.38;5063094;28;45304;-59
2022/05/10 03:13:13;;;;;;;;;25.25;22.00;;;;;20.53;51.58;101670.75;5063514;28;45287;-59
2022/05/10 03:15:39;;;;;;;;;22.50;21.25;;;;;20.55;51.59;101670.63;5061409;28;45500;-59
2022/05/10 03:18:05;;;;;;;;;32.25;25.75;;;;;20.55;51.40;101665.28;5063144;28;45961;-59
2022/05/10 03:20:30;;;;;;;;;23.00;22.00;;;;;20.56;51.16;101664.28;5062500;28;45327;-59
2022/05/10 03:22:56;;;;;;;;;26.00;22.25;;;;;20.58;51.53;101662.31;5063273;28;45235;-59
2022/05/10 03:25:21;;;;;;;;;28.75;24.00;;;;;20.60;51.29;101652.31;5063095;28;45314;-59
2022/05/10 03:27:48;;;;;;;;;23.75;21.25;;;;;20.61;51.69;101654.00;5062940;28;45371;-59
2022/05/10 03:30:15;;;;;;;;;23.25;21.75;;;;;20.60;51.06;101641.59;5063055;28;45240;-59
2022/05/10 03:32:40;;;;;;;;;24.50;23.50;;;;;20.61;51.26;101649.50;5063138;28;45489;-59
2022/05/10 03:35:06;;;;;;;;;23.25;22.50;;;;;20.61;51.06;101649.50;5061810;28;45514;-59
2022/05/10 03:37:32;;;;;;;;;25.50;23.75;;;;;20.61;51.51;101645.97;5062624;28;46196;-59
2022/05/10 03:39:59;;;;;;;;;26.00;22.00;;;;;20.61;51.30;101644.16;5062830;28;45364;-59
2022/05/10 03:42:25;;;;;;;;;28.75;24.75;;;;;20.62;50.78;101642.34;5062986;28;45294;-59
2022/05/10 03:44:52;;;;;;;;;28.25;23.25;;;;;20.61;51.43;101641.47;5063059;28;45326;-58
2022/05/10 03:47:22;;;;;;;;;25.25;21.75;;;;;20.62;51.07;101640.50;5062687;28;45338;-58
2022/05/10 03:49:49;;;;;;;;;23.25;22.25;;;;;20.62;51.08;101645.03;5062625;28;45499;-59
2022/05/10 03:52:15;;;;;;;;;21.50;19.25;;;;;20.61;50.71;101640.63;5062523;28;45434;-59
2022/05/10 03:54:42;;;;;;;;;25.75;22.25;;;;;20.61;50.63;101630.75;5062765;28;45431;-59
2022/05/10 03:57:08;;;;;;;;;28.50;24.00;;;;;20.62;50.97;101639.66;5062415;28;45312;-59
2022/05/10 03:59:34;;;;;;;;;22.00;21.75;;;;;20.60;50.95;101631.75;5062357;28;45326;-59
2022/05/10 04:01:59;;;;;;;;;22.75;22.00;;;;;20.60;50.81;101630.91;5062815;28;45177;-59
2022/05/10 04:04:25;;;;;;;;;26.50;22.00;;;;;20.60;50.87;101630.91;5062475;28;45252;-59
2022/05/10 04:06:50;;;;;;;;;23.00;21.25;;;;;20.59;50.51;101630.06;5068926;28;45203;-59
2022/05/10 04:09:16;;;;;;;;;25.00;24.50;;;;;20.59;50.42;101624.69;5062332;28;45338;-59
2022/05/10 04:11:44;;;;;;;;;28.25;23.00;;;;;20.60;50.75;101636.25;5062680;28;45343;-59
2022/05/10 04:14:11;;;;;;;;;22.25;22.00;;;;;20.57;50.41;101634.69;5062417;28;45511;-59
2022/05/10 04:16:36;;;;;;;;;23.75;22.75;;;;;20.58;50.80;101633.72;5062176;28;46351;-59
2022/05/10 04:19:02;;;;;;;;;27.75;21.75;;;;;20.59;50.53;101634.56;5061935;28;45316;-59
2022/05/10 04:21:27;;;;;;;;;20.50;20.00;;;;;20.57;50.49;101632.03;5062234;28;45681;-59
2022/05/10 04:23:53;;;;;;;;;21.25;19.25;;;;;20.58;50.96;101638.22;5062330;28;45138;-59
2022/05/10 04:26:19;;;;;;;;;18.75;15.50;;;;;20.58;50.23;101628.38;5062120;28;45340;-59
2022/05/10 04:28:45;;;;;;;;;25.50;20.00;;;;;20.60;50.04;101625.53;5061781;28;45465;-59
2022/05/10 04:31:11;;;;;;;;;87.00;44.50;;;;;20.63;50.01;101628.81;5061541;28;45243;-59
2022/05/10 04:33:37;;;;;;;;;56.00;33.75;;;;;20.66;49.58;101624.16;5061748;28;45465;-59
2022/05/10 04:36:03;;;;;;;;;34.25;25.00;;;;;20.69;49.93;101621.22;5062073;28;45909;-59
2022/05/10 04:38:28;;;;;;;;;38.25;23.75;;;;;20.70;49.65;101623.78;5061477;28;45378;-59
2022/05/10 04:43:39;;;;;;;;;23.50;20.00;;;;;20.75;49.44;101628.72;5061853;28;45412;-59
2022/05/10 04:46:05;;;;;;;;;25.25;19.75;;;;;20.75;49.00;101626.88;5061735;28;45717;-59
2022/05/10 04:48:30;;;;;;;;;25.50;19.75;;;;;20.77;49.08;101627.59;5061501;28;45369;-59
2022/05/10 04:50:56;;;;;;;;;23.75;19.25;;;;;20.77;49.44;101632.94;5061955;28;45505;-59
2022/05/10 04:53:22;;;;;;;;;23.25;22.00;;;;;20.77;49.48;101635.63;5061405;28;45236;-59
2022/05/10 04:55:49;;;;;;;;;23.50;21.25;;;;;20.78;49.43;101629.31;5061447;28;45236;-59
2022/05/10 04:58:15;;;;;;;;;21.50;18.00;;;;;20.81;49.00;101630.84;5061536;28;45251;-59
2022/05/10 05:00:41;;;;;;;;;17.50;16.75;;;;;20.81;49.49;101629.03;5061611;28;45467;-59
2022/05/10 05:03:06;;;;;;;;;23.00;20.25;;;;;20.84;49.38;101631.41;5061727;28;45438;-59
2022/05/10 05:05:32;;;;;;;;;19.25;19.00;;;;;20.86;49.10;101634.84;5065841;28;45248;-59
2022/05/10 05:07:58;;;;;;;;;19.00;16.50;;;;;20.86;48.90;101629.47;5063397;27;45423;-59
2022/05/10 05:10:23;;;;;;;;;23.00;20.50;;;;;20.90;49.42;101636.25;5060181;28;45259;-59
2022/05/10 05:12:49;;;;;;;;;24.75;21.25;;;;;20.92;49.07;101630.75;5061437;28;45534;-59
2022/05/10 05:15:15;;;;;;;;;20.00;19.00;;;;;20.94;49.08;101633.31;5061303;28;45383;-59
2022/05/10 05:17:40;;;;;;;;;20.25;19.50;;;;;20.95;49.11;101633.16;5061204;28;45271;-62
2022/05/10 05:20:06;;;;;;;;;20.75;19.50;;;;;20.95;48.74;101640.34;5061259;28;45276;-59
2022/05/10 05:22:32;;;;;;;;;21.75;20.75;;;;;20.95;48.82;101637.69;5061226;28;45167;-59
2022/05/10 05:24:58;;;;;;;;;19.75;19.00;;;;;20.97;48.97;101635.69;5060841;28;46277;-59
2022/05/10 05:27:23;;;;;;;;;19.75;17.00;;;;;20.96;48.72;101637.53;5060997;28;45224;-59
2022/05/10 05:29:49;;;;;;;;;20.50;18.00;;;;;20.97;49.20;101633.88;5059915;28;45364;-59
2022/05/10 05:32:17;;;;;;;;;19.25;19.00;;;;;20.98;48.15;101638.22;5063739;28;45502;-59
2022/05/10 05:34:43;;;;;;;;;20.75;18.00;;;;;21.00;48.65;101644.28;5060992;28;45322;-59
2022/05/10 05:39:53;;;;;;;;;17.50;17.50;;;;;21.03;48.64;101643.19;5060883;28;45312;-60
2022/05/10 05:42:18;;;;;;;;;19.50;17.50;;;;;21.03;48.27;101644.03;5072151;28;45465;-59
2022/05/10 05:44:45;;;;;;;;;21.75;19.00;;;;;21.04;48.20;101640.38;5060679;28;45403;-59
2022/05/10 05:47:10;;;;;;;;;18.50;10.25;;;;;21.04;48.08;101647.56;5070699;28;45242;-59
2022/05/10 05:49:36;;;;;;;;;18.25;17.00;;;;;21.07;48.31;101644.59;5064734;28;45295;-59
2022/05/10 05:52:03;;;;;;;;;28.25;21.75;;;;;21.10;47.83;101650.56;5060433;28;45236;-58
2022/05/10 05:54:28;;;;;;;;;23.50;22.00;;;;;21.11;48.14;101646.88;5062954;28;45185;-58
2022/05/10 05:57:06;;;;;;;;;17.75;16.50;;;;;21.14;47.74;101646.59;5059947;28;45362;-59
2022/05/10 05:59:34;;;;;;;;;18.75;17.00;;;;;21.17;47.55;101637.44;5059965;28;45382;-59
2022/05/10 06:02:00;;;;;;;;;20.00;17.00;;;;;21.21;47.61;101643.38;5060242;28;45529;-59
2022/05/10 06:04:26;;;;;;;;;18.50;14.50;;;;;21.23;47.73;101644.91;5059871;28;45319;-58
2022/05/10 06:06:51;;;;;;;;;20.75;18.75;;;;;21.26;47.59;101636.63;5060155;28;45407;-59
2022/05/10 06:09:20;;;;;;;;;21.50;19.25;;;;;21.30;47.44;101646.09;5060387;28;45523;-58
2022/05/10 06:11:46;;;;;;;;;19.75;19.00;;;;;21.31;48.03;101641.59;5061152;28;46604;-58
2022/05/10 06:14:12;;;;;;;;;18.00;16.25;;;;;21.36;47.59;101650.06;5067601;28;46331;-59
2022/05/10 06:16:41;;;;;;;;;15.75;14.50;;;;;21.38;47.62;101638.22;5069734;28;45335;-58
2022/05/10 06:19:11;;;;;;;;;21.25;17.50;;;;;21.43;47.53;101646.69;5067039;28;45576;-59
2022/05/10 06:21:37;;;;;;;;;21.50;20.75;;;;;21.47;47.24;101641.88;5068387;28;45389;-58
2022/05/10 06:24:03;;;;;;;;;21.25;20.75;;;;;21.54;47.25;101652.91;5071443;28;45367;-58
2022/05/10 06:26:28;;;;;;;;;16.25;15.00;;;;;21.59;46.89;101654.19;5069693;27;45800;-59
2022/05/10 06:28:54;;;;;;;;;19.00;16.25;;;;;21.64;46.94;101643.88;5066975;28;45414;-58
2022/05/10 06:31:19;;;;;;;;;20.50;18.25;;;;;21.69;46.51;101644.31;5070642;28;45249;-58
2022/05/10 06:33:45;;;;;;;;;19.75;19.00;;;;;21.76;46.86;101636.53;5070418;28;45728;-58
2022/05/10 06:36:10;;;;;;;;;22.75;20.00;;;;;21.83;46.71;101642.19;5062571;28;45389;-59
2022/05/10 06:38:36;;;;;;;;;24.50;21.25;;;;;21.92;46.43;101646.69;5068498;28;45564;-58
2022/05/10 06:41:04;;;;;;;;;20.25;18.00;;;;;21.99;46.66;101640.63;5069348;28;45272;-58
2022/05/10 06:43:35;;;;;;;;;22.50;19.50;;;;;22.07;46.32;101641.75;5068690;28;45435;-57
2022/05/10 06:46:21;;;;;;;;;19.75;18.75;;;;;22.14;45.86;101638.38;5072020;28;45448;-58
2022/05/10 06:48:47;;;;;;;;;20.75;18.75;;;;;22.19;45.90;101645.97;5063000;28;45432;-57
2022/05/10 06:51:17;;;;;;;;;21.25;19.75;;;;;22.24;46.35;101644.56;5068659;28;45469;-57
2022/05/10 06:53:43;;;;;;;;;23.25;21.75;;;;;22.28;45.61;101639.78;5067863;28;45529;-57
2022/05/10 06:56:08;;;;;;;;;22.25;20.00;;;;;22.32;45.49;101640.31;5073281;28;45405;-57
2022/05/10 06:58:35;;;;;;;;;22.00;19.25;;;;;22.35;45.63;101638.16;5072973;28;45468;-57
2022/05/10 07:01:00;;;;;;;;;19.00;18.00;;;;;22.40;45.03;101638.59;5072887;28;45609;-57
2022/05/10 07:03:31;;;;;;;;;22.25;20.00;;;;;22.42;45.59;101643.81;5071457;28;46194;-57
2022/05/10 07:05:58;;;;;;;;;19.50;17.75;;;;;22.44;45.64;101636.47;5073695;28;45422;-57
2022/05/10 07:08:24;;;;;;;;;19.00;16.75;;;;;22.46;45.57;101635.31;5068144;28;45382;-57
2022/05/10 07:10:49;;;;;;;;;21.00;17.75;;;;;22.48;45.35;101627.97;5070761;27;45570;-57
2022/05/10 07:13:21;;;;;;;;;22.25;17.00;;;;;22.51;45.39;101624.13;5073463;28;46182;-57
2022/05/10 07:15:48;;;;;;;;;19.00;17.50;;;;;22.52;45.11;101629.38;5071611;28;45477;-57
2022/05/10 07:18:14;;;;;;;;;21.25;19.50;;;;;22.55;45.25;101628.22;5071243;28;45462;-57
2022/05/10 07:20:41;;;;;;;;;18.00;17.00;;;;;22.55;44.94;101623.69;5071916;27;45429;-57
2022/05/10 07:23:07;;;;;;;;;21.50;18.50;;;;;22.58;44.95;101626.06;5071349;28;45435;-57
2022/05/10 07:25:33;;;;;;;;;21.00;15.50;;;;;22.60;45.56;101617.91;5073174;28;45247;-57
2022/05/10 07:27:59;;;;;;;;;21.50;19.50;;;;;22.62;44.64;101625.81;5073049;28;45311;-57
2022/05/10 07:30:26;;;;;;;;;24.50;16.50;;;;;22.62;45.29;101629.34;5071078;28;45234;-57
2022/05/10 07:32:53;;;;;;;;;21.00;20.00;;;;;22.65;44.87;101618.28;5072098;28;45381;-57
2022/05/10 07:36:23;;;;;;;;;17.00;15.50;;;;;22.70;45.22;101625.91;5071364;27;45326;-57
2022/05/10 07:38:08;;;;;;;;;16.00;14.50;;;;;22.75;45.18;101631.66;5071525;28;45308;-57
2022/05/10 07:40:33;;;;;;;;;22.00;19.75;;;;;22.82;45.39;101628.22;5072324;28;45176;-58
2022/05/10 07:42:59;;;;;;;;;19.50;18.00;;;;;22.87;45.17;101622.47;5071883;28;46106;-57
2022/05/10 07:45:24;;;;;;;;;17.25;15.50;;;;;22.90;44.74;101624.00;5071805;28;45226;-57
2022/05/10 07:47:50;;;;;;;;;21.75;18.50;;;;;22.91;45.07;101621.19;5070932;28;45325;-57
2022/05/10 07:50:16;;;;;;;;;19.00;15.75;;;;;22.93;45.00;101629.09;5073007;28;45145;-57
2022/05/10 07:52:42;;;;;;;;;17.50;17.00;;;;;22.94;44.33;101620.03;5072528;28;45472;-57
2022/05/10 07:55:09;;;;;;;;;16.50;14.50;;;;;22.97;44.73;101628.63;5072350;27;45290;-57
2022/05/10 07:57:34;;;;;;;;;22.50;16.00;;;;;23.02;44.82;101620.97;5070940;28;45499;-57
2022/05/10 08:00:00;;;;;;;;;22.75;19.50;;;;;23.12;44.58;101616.38;5070593;28;45536;-57
2022/05/10 08:02:25;;;;;;;;;18.50;16.75;;;;;23.25;44.71;101617.84;5073053;28;46080;-57
2022/05/10 08:04:51;;;;;;;;;16.50;15.25;;;;;23.35;43.97;101624.84;5072553;28;45429;-57
2022/05/10 08:07:17;;;;;;;;;17.00;14.00;;;;;23.43;43.80;101624.06;5071628;28;45385;-57
2022/05/10 08:09:42;;;;;;;;;15.00;14.50;;;;;23.47;43.24;101624.63;5070790;27;45468;-57
2022/05/10 08:12:09;;;;;;;;;16.75;14.25;;;;;23.49;43.37;101625.31;5070402;28;45992;-57
2022/05/10 08:14:35;;;;;;;;;15.50;15.50;;;;;23.50;43.02;101622.47;5072356;28;45176;-57
2022/05/10 08:17:00;;;;;;;;;15.00;14.00;;;;;23.53;43.00;101629.38;5072316;28;45227;-57
2022/05/10 08:19:26;;;;;;;;;15.75;13.50;;;;;23.56;43.29;101634.47;5071358;27;45224;-57
2022/05/10 08:21:55;;;;;;;;;17.00;12.25;;;;;23.59;42.97;101635.00;5070287;28;45406;-57
2022/05/10 08:24:22;;;;;;;;;15.50;14.25;;;;;23.63;43.21;101635.59;5070281;28;45323;-57
2022/05/10 08:26:47;;;;;;;;;12.75;11.00;;;;;23.65;42.76;101637.09;5073138;28;45179;-57
2022/05/10 08:29:13;;;;;;;;;17.50;14.00;;;;;23.68;42.96;101636.78;5072093;28;46740;-57
2022/05/10 08:31:40;;;;;;;;;15.25;12.50;;;;;23.72;43.49;101631.97;5071003;28;45300;-57
2022/05/10 08:34:06;;;;;;;;;15.25;14.00;;;;;23.77;43.52;101631.47;5070202;28;45224;-57
2022/05/10 08:36:32;;;;;;;;;14.00;12.75;;;;;23.86;43.09;101638.63;5061810;28;45237;-57
2022/05/10 08:38:57;;;;;;;;;15.00;13.50;;;;;23.95;42.83;101626.94;5061887;28;45281;-57
2022/05/10 08:41:32;;;;;;;;;13.50;12.00;;;;;23.96;42.15;101631.31;5061683;28;45303;-57
2022/05/10 08:44:11;;;;;;;;;12.00;12.00;;;;;24.02;42.80;101630.69;5061793;28;45388;-57
2022/05/10 08:46:42;;;;;;;;;13.00;12.25;;;;;24.09;42.90;101629.03;5061972;28;45485;-57
2022/05/10 08:49:36;;;;;;;;;23.25;17.75;;;;;24.11;42.54;101618.97;5061603;28;45405;-57
2022/05/10 08:52:03;;;;;;;;;15.50;13.25;;;;;24.16;42.77;101622.03;5061104;28;46234;-57
2022/05/10 08:54:30;;;;;;;;;11.50;11.50;;;;;24.22;42.35;101615.16;5061364;28;45381;-57
2022/05/10 08:57:00;;;;;;;;;17.50;13.25;;;;;24.33;42.17;101616.78;5061525;28;45299;-57
2022/05/10 08:59:56;;;;;;;;;15.25;13.00;;;;;24.44;41.92;101614.66;5061645;28;45240;-57
2022/05/10 09:02:45;;;;;;;;;15.00;13.00;;;;;24.55;41.55;101613.53;5061370;28;45462;-57
2022/05/10 09:05:24;;;;;;;;;11.50;11.50;;;;;24.68;41.19;101616.63;5063048;28;45552;-57
2022/05/10 09:08:27;;;;;;;;;14.50;14.00;;;;;24.81;40.82;101607.28;5064380;28;45302;-57
2022/05/10 09:10:57;;;;;;;;;14.50;13.75;;;;;24.94;40.96;101613.88;5061203;28;45476;-57
2022/05/10 09:13:24;;;;;;;;;13.25;12.00;;;;;25.10;41.44;101605.00;5061483;28;45375;-57
2022/05/10 09:15:58;;;;;;;;;13.00;10.75;;;;;25.26;40.71;101605.06;5061125;28;45489;-57
2022/05/10 09:18:37;;;;;;;;;13.75;13.00;;;;;25.41;40.17;101604.41;5060797;28;45264;-57
2022/05/10 09:21:23;;;;;;;;;16.50;14.00;;;;;25.53;40.26;101608.47;5061052;28;45490;-57
2022/05/10 09:24:07;;;;;;;;;16.50;13.50;;;;;25.58;40.05;101600.69;5061041;28;45356;-57
2022/05/10 09:26:38;;;;;;;;;13.00;11.25;;;;;25.61;39.51;101603.94;5061128;28;45331;-57
2022/05/10 09:29:16;;;;;;;;;10.00;9.75;;;;;25.63;39.19;101601.06;5061053;28;45572;-57
2022/05/10 09:37:15;;;;;;;;;23.25;14.50;;;;;25.80;38.55;101599.22;5060540;28;45385;-57
2022/05/10 09:39:56;;;;;;;;;14.00;11.00;;;;;25.85;39.00;101596.88;5060893;28;45348;-57
2022/05/10 09:42:38;;;;;;;;;13.25;12.00;;;;;25.88;38.39;101591.13;5059667;28;45255;-57
2022/05/10 09:45:06;;;;;;;;;12.00;11.00;;;;;25.92;38.74;101599.75;5060747;28;45375;-57
2022/05/10 09:47:32;;;;;;;;;17.25;15.00;;;;;25.94;38.57;101597.69;5060986;28;45205;-57
2022/05/10 09:50:29;;;;;;;;;15.00;11.75;;;;;25.95;38.32;101597.53;5059507;28;45323;-57
2022/05/10 09:53:12;;;;;;;;;13.25;11.75;;;;;26.00;38.56;101599.72;5059940;28;45596;-57
2022/05/10 09:55:50;;;;;;;;;12.25;12.25;;;;;26.02;38.40;101592.28;5060730;28;45431;-57
2022/05/10 09:58:19;;;;;;;;;12.00;11.25;;;;;26.06;38.28;101594.47;5060750;28;45203;-56
2022/05/10 10:00:55;;;;;;;;;11.50;11.00;;;;;26.12;37.62;101585.69;5060440;28;45350;-57
2022/05/10 10:03:32;;;;;;;;;13.75;11.00;;;;;26.19;38.02;101587.69;5060396;28;45370;-57
2022/05/10 10:06:21;;;;;;;;;11.75;10.50;;;;;26.26;37.44;101589.53;5066183;28;45351;-57
2022/05/10 10:08:51;;;;;;;;;15.75;11.75;;;;;26.21;37.00;101582.97;5060336;28;45334;-58
2022/05/10 10:11:39;;;;;;;;;11.50;11.00;;;;;26.11;37.18;101578.59;5060411;28;45290;-58
2022/05/10 10:14:10;;;;;;;;;12.50;11.25;;;;;26.09;37.68;101575.22;5060381;28;45398;-58
2022/05/10 10:16:53;;;;;;;;;11.50;11.00;;;;;26.13;37.95;101573.00;5060195;28;45330;-58
2022/05/10 10:19:22;;;;;;;;;13.75;12.25;;;;;26.20;37.36;101576.72;5059843;28;45329;-58
2022/05/10 10:22:19;;;;;;;;;12.00;12.00;;;;;26.26;37.29;101589.53;5060056;28;45280;-58
2022/05/10 10:24:54;;;;;;;;;15.00;11.25;;;;;26.32;36.57;101571.81;5060199;28;45490;-58
2022/05/10 10:27:28;;;;;;;;;16.50;10.75;;;;;26.39;36.49;101578.22;5060119;28;46166;-58
2022/05/10 10:30:01;;;;;;;;;14.00;11.75;;;;;26.41;36.52;101582.44;5060817;28;45321;-58
2022/05/10 10:32:33;;;;;;;;;12.50;10.75;;;;;26.42;36.07;101581.41;5062483;28;45292;-58
2022/05/10 10:35:09;;;;;;;;;11.25;10.75;;;;;26.46;36.32;101584.59;5063780;28;45279;-58
2022/05/10 10:37:45;;;;;;;;;10.50;9.50;;;;;26.49;36.20;101570.75;5063102;28;45335;-59
2022/05/10 10:40:26;;;;;;;;;10.25;9.25;;;;;26.53;36.39;101577.47;5063233;28;45411;-58
2022/05/10 10:42:59;;;;;;;;;12.25;9.75;;;;;26.64;36.14;101570.88;5063755;28;45341;-58
2022/05/10 10:45:51;;;;;;;;;14.25;8.75;;;;;26.70;35.73;101572.84;5063495;28;45243;-58
2022/05/10 10:48:19;;;;;;;;;10.00;10.00;;;;;26.76;35.58;101577.56;5063476;28;45575;-58
2022/05/10 10:50:45;;;;;;;;;12.00;10.00;;;;;26.83;34.92;101581.25;5063144;28;45409;-58
2022/05/10 10:53:12;;;;;;;;;7.00;7.00;;;;;26.86;35.18;101591.72;5062914;28;45398;-58
2022/05/10 10:55:43;;;;;;;;;21.75;12.25;;;;;26.88;34.77;101570.75;5063256;28;45450;-58
2022/05/10 10:58:16;;;;;;;;;12.50;11.00;;;;;26.89;34.79;101571.59;5062912;28;45396;-58
2022/05/10 11:00:54;;;;;;;;;9.50;6.00;;;;;26.97;34.71;101577.78;5063122;28;45437;-58
2022/05/10 11:03:38;;;;;;;;;8.25;7.75;;;;;26.93;34.55;101576.44;5062197;28;45501;-58
2022/05/10 11:06:28;;;;;;;;;11.25;9.25;;;;;26.96;34.59;101567.16;5069898;28;45635;-58
2022/05/10 11:09:14;;;;;;;;;9.50;9.50;;;;;27.05;34.57;101563.41;5055000;28;46597;-58
2022/05/10 11:11:59;;;;;;;;;15.25;10.75;;;;;27.09;34.28;101555.75;5063014;28;45260;-57
2022/05/10 11:14:51;;;;;;;;;10.75;7.25;;;;;27.18;34.24;101546.59;5063131;28;45323;-58
2022/05/10 11:17:48;;;;;;;;;10.00;8.75;;;;;27.33;34.32;101542.06;5061947;28;45356;-58
2022/05/10 11:20:52;;;;;;;;;9.50;9.00;;;;;27.40;34.46;101543.00;5053182;28;46166;-57
2022/05/10 11:23:34;;;;;;;;;9.00;9.00;;;;;27.38;33.87;101534.25;5062730;28;45267;-58
2022/05/10 11:26:10;;;;;;;;;10.50;9.25;;;;;27.41;34.02;101524.91;5062739;28;45350;-58
2022/05/10 11:28:54;;;;;;;;;11.00;9.00;;;;;27.41;34.05;101530.31;5062943;28;45339;-58
2022/05/10 11:31:41;;;;;;;;;8.75;8.75;;;;;27.47;33.78;101526.91;5062889;28;45295;-58
2022/05/10 11:34:25;;;;;;;;;12.00;10.00;;;;;27.55;33.68;101532.25;5062604;28;45241;-58
2022/05/10 11:36:52;;;;;;;;;10.50;8.25;;;;;27.53;33.46;101531.59;5062590;28;45394;-58
2022/05/10 11:40:03;;;;;;;;;10.75;9.25;;;;;27.48;34.12;101529.41;5062861;28;45514;-58